createdAt,value
2023-02-13T00:00:23.187Z,98855.97
2023-02-13T00:01:25.189Z,98854.91
2023-02-13T00:02:27.854Z,98849.75
2023-02-13T00:03:30.391Z,98857.50
2023-02-13T00:04:32.269Z,98846.13
2023-02-13T00:05:34.158Z,98851.19
2023-02-13T00:06:36.094Z,98845.41
2023-02-13T00:07:37.985Z,98842.81
2023-02-13T00:08:39.900Z,98846.25
2023-02-13T00:09:41.824Z,98848.00
2023-02-13T00:10:43.705Z,98849.66
2023-02-13T00:11:45.647Z,98847.69
2023-02-13T00:12:47.575Z,98853.66
2023-02-13T00:13:49.466Z,98851.28
2023-02-13T00:14:51.404Z,98853.06
2023-02-13T00:15:57.801Z,98852.56
2023-02-13T00:16:59.699Z,98850.28
2023-02-13T00:18:02.802Z,98851.81
2023-02-13T00:19:04.613Z,98851.94
2023-02-13T00:20:06.707Z,98849.13
2023-02-13T00:21:12.573Z,98846.44
2023-02-13T00:22:17.683Z,98845.53
2023-02-13T00:23:19.555Z,98846.06
2023-02-13T00:24:21.458Z,98840.28
2023-02-13T00:25:23.268Z,98841.81
2023-02-13T00:26:25.213Z,98844.41
2023-02-13T00:27:27.108Z,98845.44
2023-02-13T00:28:29.103Z,98852.66
2023-02-13T00:29:30.967Z,98849.59
2023-02-13T00:30:32.772Z,98849.59
2023-02-13T00:31:34.818Z,98852.91
2023-02-13T00:32:36.772Z,98851.13
2023-02-13T00:33:39.059Z,98858.88
2023-02-13T00:34:41.017Z,98852.66
2023-02-13T00:35:42.871Z,98858.44
2023-02-13T00:36:44.827Z,98859.06
2023-02-13T00:37:46.767Z,98857.09
2023-02-13T00:38:49.171Z,98853.47
2023-02-13T00:39:51.005Z,98855.97
2023-02-13T00:40:52.900Z,98855.13
2023-02-13T00:41:54.800Z,98850.91
2023-02-13T00:42:56.691Z,98856.97
2023-02-13T00:43:58.482Z,98851.22
2023-02-13T00:45:00.302Z,98863.28
2023-02-13T00:46:02.351Z,98860.59
2023-02-13T00:47:04.265Z,98853.69
2023-02-13T00:48:06.323Z,98851.81
2023-02-13T00:49:09.600Z,98856.78
2023-02-13T00:50:11.479Z,98846.56
2023-02-13T00:51:13.728Z,98853.47
2023-02-13T00:52:15.630Z,98855.66
2023-02-13T00:53:17.450Z,98854.09
2023-02-13T00:54:19.336Z,98852.56
2023-02-13T00:55:21.229Z,98859.50
2023-02-13T00:56:23.139Z,98859.25
2023-02-13T00:57:25.085Z,98855.75
2023-02-13T00:58:27.967Z,98853.19
2023-02-13T00:59:29.817Z,98853.91
2023-02-13T01:00:31.667Z,98854.72
2023-02-13T01:01:33.737Z,98863.41
2023-02-13T01:02:36.552Z,98863.28
2023-02-13T01:03:38.476Z,98866.56
2023-02-13T01:04:40.320Z,98862.38
2023-02-13T01:05:42.950Z,98861.75
2023-02-13T01:06:44.895Z,98857.81
2023-02-13T01:07:46.772Z,98853.50
2023-02-13T01:08:48.625Z,98852.47
2023-02-13T01:09:50.620Z,98856.59
2023-02-13T01:10:52.537Z,98856.47
2023-02-13T01:11:54.536Z,98857.19
2023-02-13T01:12:56.477Z,98853.09
2023-02-13T01:13:58.276Z,98854.09
2023-02-13T01:15:00.114Z,98853.72
2023-02-13T01:16:02.071Z,98857.44
2023-02-13T01:17:04.005Z,98850.50
2023-02-13T01:18:06.047Z,98853.81
2023-02-13T01:19:07.947Z,98863.13
2023-02-13T01:20:11.435Z,98858.66
2023-02-13T01:21:16.710Z,98854.44
2023-02-13T01:22:18.731Z,98857.97
2023-02-13T01:23:20.612Z,98860.53
2023-02-13T01:24:22.523Z,98857.81
2023-02-13T01:25:24.731Z,98860.31
2023-02-13T01:26:26.577Z,98861.84
2023-02-13T01:27:29.254Z,98857.63
2023-02-13T01:28:31.163Z,98858.44
2023-02-13T01:29:33.154Z,98863.59
2023-02-13T01:30:35.696Z,98863.50
2023-02-13T01:31:37.623Z,98860.94
2023-02-13T01:32:43.813Z,98857.63
2023-02-13T01:33:45.743Z,98858.53
2023-02-13T01:34:47.553Z,98853.72
2023-02-13T01:35:49.861Z,98853.00
2023-02-13T01:36:51.710Z,98854.75
2023-02-13T01:37:53.699Z,98850.22
2023-02-13T01:38:56.899Z,98847.50
2023-02-13T01:39:58.724Z,98851.66
2023-02-13T01:41:00.586Z,98847.31
2023-02-13T01:42:02.446Z,98847.09
2023-02-13T01:43:04.418Z,98852.97
2023-02-13T01:44:24.979Z,98852.03
2023-02-13T01:45:28.468Z,98848.53
2023-02-13T01:46:39.074Z,98853.69
2023-02-13T01:47:45.358Z,98855.34
2023-02-13T01:48:48.927Z,98859.78
2023-02-13T01:49:52.720Z,98864.00
2023-02-13T01:51:09.022Z,98862.38
2023-02-13T01:52:11.760Z,98864.22
2023-02-13T01:53:23.540Z,98859.06
2023-02-13T01:54:31.437Z,98859.88
2023-02-13T01:55:35.390Z,98857.31
2023-02-13T01:56:43.695Z,98861.66
2023-02-13T01:57:51.000Z,98868.75
2023-02-13T01:58:55.053Z,98863.13
2023-02-13T02:00:07.783Z,98868.38
2023-02-13T02:01:10.288Z,98864.03
2023-02-13T02:02:12.567Z,98864.13
2023-02-13T02:03:17.117Z,98862.59
2023-02-13T02:04:34.328Z,98870.66
2023-02-13T02:05:36.759Z,98866.53
2023-02-13T02:06:41.252Z,98854.66
2023-02-13T02:07:43.291Z,98865.19
2023-02-13T02:08:46.480Z,98859.31
2023-02-13T02:09:48.682Z,98861.78
2023-02-13T02:10:50.538Z,98866.63
2023-02-13T02:11:58.910Z,98855.19
2023-02-13T02:13:03.901Z,98858.47
2023-02-13T02:14:05.736Z,98859.19
2023-02-13T02:15:07.969Z,98848.78
2023-02-13T02:16:10.193Z,98859.91
2023-02-13T02:17:12.378Z,98852.09
2023-02-13T02:18:16.034Z,98852.81
2023-02-13T02:19:36.744Z,98848.34
2023-02-13T02:20:57.379Z,98851.66
2023-02-13T02:22:02.293Z,98845.44
2023-02-13T02:23:07.124Z,98847.31
2023-02-13T02:24:38.296Z,98842.16
2023-02-13T02:26:01.869Z,98841.94
2023-02-13T02:27:12.947Z,98847.09
2023-02-13T02:28:33.216Z,98845.56
2023-02-13T02:29:35.064Z,98837.19
2023-02-13T02:30:56.185Z,98840.72
2023-02-13T02:32:00.937Z,98838.25
2023-02-13T02:33:17.631Z,98840.09
2023-02-13T02:34:34.795Z,98838.47
2023-02-13T02:35:36.575Z,98839.19
2023-02-13T02:36:48.274Z,98840.00
2023-02-13T02:38:08.784Z,98843.00
2023-02-13T02:39:29.419Z,98844.97
2023-02-13T02:40:38.870Z,98842.38
2023-02-13T02:41:43.945Z,98845.69
2023-02-13T02:43:04.646Z,98850.75
2023-02-13T02:44:09.546Z,98846.31
2023-02-13T02:45:11.358Z,98851.47
2023-02-13T02:46:13.207Z,98853.94
2023-02-13T02:47:33.588Z,98851.38
2023-02-13T02:49:07.847Z,98849.78
2023-02-13T02:50:09.650Z,98849.78
2023-02-13T02:51:11.481Z,98848.88
2023-02-13T02:52:18.612Z,98855.69
2023-02-13T02:53:26.778Z,98846.19
2023-02-13T02:54:54.532Z,98851.47
2023-02-13T02:56:00.857Z,98846.31
2023-02-13T02:57:06.219Z,98847.44
2023-02-13T02:58:26.415Z,98852.50
2023-02-13T02:59:47.507Z,98849.78
2023-02-13T03:01:09.081Z,98854.75
2023-02-13T03:02:31.028Z,98852.81
2023-02-13T03:03:53.390Z,98856.09
2023-02-13T03:05:15.852Z,98847.31
2023-02-13T03:06:24.830Z,98855.75
2023-02-13T03:07:27.243Z,98840.38
2023-02-13T03:08:47.998Z,98845.44
2023-02-13T03:10:12.427Z,98847.09
2023-02-13T03:11:32.814Z,98849.56
2023-02-13T03:12:57.118Z,98845.03
2023-02-13T03:14:00.475Z,98846.56
2023-02-13T03:15:02.397Z,98855.13
2023-02-13T03:16:23.018Z,98841.41
2023-02-13T03:17:43.117Z,98845.94
2023-02-13T03:19:09.200Z,98844.22
2023-02-13T03:21:05.021Z,98848.53
2023-02-13T03:22:23.833Z,98853.19
2023-02-13T03:23:40.428Z,98837.63
2023-02-13T03:24:44.941Z,98838.34
2023-02-13T03:26:02.786Z,98841.72
2023-02-13T03:27:07.462Z,98845.34
2023-02-13T03:28:40.508Z,98834.50
2023-02-13T03:30:09.218Z,98841.53
2023-02-13T03:31:21.488Z,98846.50
2023-02-13T03:32:46.520Z,98845.34
2023-02-13T03:33:48.401Z,98848.84
2023-02-13T03:35:14.862Z,98847.31
2023-02-13T03:36:40.932Z,98850.50
2023-02-13T03:37:57.751Z,98844.88
2023-02-13T03:39:08.294Z,98841.25
2023-02-13T03:40:13.212Z,98837.31
2023-02-13T03:41:23.734Z,98839.66
2023-02-13T03:42:33.525Z,98829.34
2023-02-13T03:43:49.780Z,98832.75
2023-02-13T03:45:17.495Z,98840.72
2023-02-13T03:46:20.471Z,98840.19
2023-02-13T03:47:22.489Z,98840.31
2023-02-13T03:48:47.640Z,98844.44
2023-02-13T03:50:08.655Z,98834.03
2023-02-13T03:51:12.881Z,98835.75
2023-02-13T03:52:21.637Z,98839.38
2023-02-13T03:53:24.884Z,98833.50
2023-02-13T03:54:48.266Z,98834.56
2023-02-13T03:56:09.753Z,98836.09
2023-02-13T03:57:34.146Z,98836.59
2023-02-13T03:58:56.235Z,98827.44
2023-02-13T03:59:58.879Z,98829.16
2023-02-13T04:01:02.921Z,98830.59
2023-02-13T04:02:11.851Z,98839.06
2023-02-13T04:03:24.477Z,98838.13
2023-02-13T04:04:31.245Z,98839.78
2023-02-13T04:05:37.165Z,98840.72
2023-02-13T04:06:44.804Z,98839.28
2023-02-13T04:07:46.750Z,98839.47
2023-02-13T04:08:48.773Z,98837.22
2023-02-13T04:09:50.605Z,98829.50
2023-02-13T04:10:59.975Z,98831.88
2023-02-13T04:12:06.458Z,98832.47
2023-02-13T04:13:28.378Z,98834.13
2023-02-13T04:14:43.026Z,98825.25
2023-02-13T04:15:54.203Z,98829.25
2023-02-13T04:17:03.879Z,98836.75
2023-02-13T04:18:10.642Z,98835.84
2023-02-13T04:19:13.393Z,98836.91
2023-02-13T04:20:15.455Z,98837.53
2023-02-13T04:21:17.403Z,98829.78
2023-02-13T04:22:19.302Z,98829.16
2023-02-13T04:23:21.255Z,98819.78
2023-02-13T04:24:23.073Z,98830.22
2023-02-13T04:25:24.947Z,98824.44
2023-02-13T04:26:31.307Z,98823.00
2023-02-13T04:27:33.293Z,98823.09
2023-02-13T04:28:35.279Z,98821.38
2023-02-13T04:29:37.139Z,98831.44
2023-02-13T04:30:39.326Z,98830.22
2023-02-13T04:31:41.549Z,98824.72
2023-02-13T04:32:43.592Z,98820.84
2023-02-13T04:33:45.484Z,98825.81
2023-02-13T04:34:47.352Z,98824.66
2023-02-13T04:35:49.296Z,98823.66
2023-02-13T04:36:51.201Z,98824.38
2023-02-13T04:37:53.113Z,98830.34
2023-02-13T04:38:55.083Z,98823.53
2023-02-13T04:39:56.918Z,98825.09
2023-02-13T04:40:59.056Z,98833.53
2023-02-13T04:42:01.078Z,98835.16
2023-02-13T04:43:02.920Z,98827.44
2023-02-13T04:44:05.112Z,98823.00
2023-02-13T04:45:07.082Z,98823.94
2023-02-13T04:46:09.040Z,98830.00
2023-02-13T04:47:10.926Z,98827.34
2023-02-13T04:48:12.964Z,98828.88
2023-02-13T04:49:14.993Z,98820.31
2023-02-13T04:50:16.950Z,98825.28
2023-02-13T04:51:18.845Z,98827.97
2023-02-13T04:52:20.719Z,98825.69
2023-02-13T04:53:22.595Z,98825.56
2023-02-13T04:54:24.600Z,98828.56
2023-02-13T04:55:27.415Z,98833.84
2023-02-13T04:56:29.359Z,98828.19
2023-02-13T04:57:31.220Z,98830.53
2023-02-13T04:58:33.075Z,98830.44
2023-02-13T04:59:35.094Z,98829.53
2023-02-13T05:00:37.894Z,98831.88
2023-02-13T05:01:39.733Z,98825.69
2023-02-13T05:02:41.520Z,98833.31
2023-02-13T05:03:43.991Z,98832.41
2023-02-13T05:04:46.122Z,98823.84
2023-02-13T05:05:49.039Z,98828.25
2023-02-13T05:06:50.939Z,98824.84
2023-02-13T05:07:52.832Z,98824.13
2023-02-13T05:08:54.670Z,98831.97
2023-02-13T05:09:57.255Z,98826.72
2023-02-13T05:10:59.386Z,98827.66
2023-02-13T05:12:01.858Z,98825.09
2023-02-13T05:13:03.737Z,98826.31
2023-02-13T05:14:05.914Z,98818.91
2023-02-13T05:15:07.955Z,98831.28
2023-02-13T05:16:09.899Z,98814.19
2023-02-13T05:17:11.746Z,98819.53
2023-02-13T05:18:13.644Z,98820.56
2023-02-13T05:19:15.982Z,98811.41
2023-02-13T05:20:18.256Z,98814.78
2023-02-13T05:21:38.459Z,98812.13
2023-02-13T05:23:09.442Z,98811.78
2023-02-13T05:24:11.330Z,98809.22
2023-02-13T05:25:13.343Z,98811.16
2023-02-13T05:26:15.132Z,98812.75
2023-02-13T05:27:17.026Z,98806.88
2023-02-13T05:28:37.696Z,98815.31
2023-02-13T05:29:39.689Z,98805.72
2023-02-13T05:30:41.566Z,98817.03
2023-02-13T05:31:43.456Z,98806.03
2023-02-13T05:32:45.316Z,98808.00
2023-02-13T05:33:47.190Z,98807.38
2023-02-13T05:34:49.075Z,98807.47
2023-02-13T05:35:50.926Z,98809.13
2023-02-13T05:36:52.943Z,98812.63
2023-02-13T05:37:54.905Z,98809.13
2023-02-13T05:38:56.747Z,98809.88
2023-02-13T05:39:58.667Z,98808.72
2023-02-13T05:41:00.915Z,98818.19
2023-02-13T05:42:05.146Z,98813.75
2023-02-13T05:43:07.010Z,98812.75
2023-02-13T05:44:09.086Z,98811.31
2023-02-13T05:45:11.033Z,98813.25
2023-02-13T05:46:13.192Z,98816.84
2023-02-13T05:47:15.142Z,98813.16
2023-02-13T05:48:17.088Z,98815.59
2023-02-13T05:49:19.652Z,98812.22
2023-02-13T05:50:21.717Z,98814.78
2023-02-13T05:51:23.668Z,98811.41
2023-02-13T05:52:25.677Z,98818.31
2023-02-13T05:53:27.879Z,98816.66
2023-02-13T05:54:29.860Z,98821.81
2023-02-13T05:55:31.753Z,98823.66
2023-02-13T05:56:33.606Z,98816.56
2023-02-13T05:57:35.477Z,98820.75
2023-02-13T05:58:37.409Z,98819.03
2023-02-13T05:59:39.342Z,98819.31
2023-02-13T06:00:41.239Z,98824.56
2023-02-13T06:01:43.063Z,98825.53
2023-02-13T06:02:44.909Z,98823.03
2023-02-13T06:03:46.970Z,98823.84
2023-02-13T06:04:48.905Z,98824.06
2023-02-13T06:05:50.701Z,98825.72
2023-02-13T06:06:52.553Z,98823.25
2023-02-13T06:07:54.438Z,98822.63
2023-02-13T06:08:56.300Z,98827.97
2023-02-13T06:10:00.117Z,98826.34
2023-02-13T06:11:02.330Z,98827.97
2023-02-13T06:12:04.466Z,98828.69
2023-02-13T06:13:06.465Z,98824.06
2023-02-13T06:14:08.412Z,98823.03
2023-02-13T06:15:10.370Z,98825.59
2023-02-13T06:16:12.898Z,98826.56
2023-02-13T06:17:14.862Z,98827.47
2023-02-13T06:18:17.466Z,98830.84
2023-02-13T06:19:19.395Z,98824.50
2023-02-13T06:20:21.342Z,98829.00
2023-02-13T06:21:23.220Z,98830.47
2023-02-13T06:22:25.132Z,98831.09
2023-02-13T06:23:27.025Z,98829.72
2023-02-13T06:24:28.985Z,98823.84
2023-02-13T06:25:30.924Z,98839.22
2023-02-13T06:26:32.833Z,98845.00
2023-02-13T06:27:34.692Z,98844.88
2023-02-13T06:28:36.797Z,98841.38
2023-02-13T06:29:38.726Z,98844.78
2023-02-13T06:30:40.623Z,98846.53
2023-02-13T06:31:42.419Z,98846.53
2023-02-13T06:32:44.382Z,98845.09
2023-02-13T06:33:46.258Z,98849.22
2023-02-13T06:34:48.122Z,98852.19
2023-02-13T06:35:49.962Z,98852.09
2023-02-13T06:36:53.161Z,98856.44
2023-02-13T06:37:55.060Z,98854.69
2023-02-13T06:38:56.916Z,98850.34
2023-02-13T06:39:58.797Z,98857.56
2023-02-13T06:41:02.463Z,98851.59
2023-02-13T06:42:04.462Z,98844.47
2023-02-13T06:43:06.414Z,98850.47
2023-02-13T06:44:08.344Z,98842.00
2023-02-13T06:45:10.626Z,98850.56
2023-02-13T06:46:12.768Z,98845.31
2023-02-13T06:47:14.679Z,98853.84
2023-02-13T06:48:16.653Z,98847.59
2023-02-13T06:49:18.588Z,98845.28
2023-02-13T06:50:20.617Z,98849.00
2023-02-13T06:51:22.536Z,98844.97
2023-02-13T06:52:24.426Z,98851.56
2023-02-13T06:53:26.300Z,98853.97
2023-02-13T06:54:44.681Z,98852.19
2023-02-13T06:55:48.032Z,98858.88
2023-02-13T06:56:49.923Z,98849.22
2023-02-13T06:57:51.794Z,98850.75
2023-02-13T06:58:53.661Z,98854.78
2023-02-13T06:59:55.544Z,98846.84
2023-02-13T07:00:57.777Z,98840.03
2023-02-13T07:01:59.870Z,98850.34
2023-02-13T07:03:03.270Z,98849.63
2023-02-13T07:04:05.204Z,98845.41
2023-02-13T07:05:07.111Z,98846.94
2023-02-13T07:06:09.060Z,98853.84
2023-02-13T07:07:10.951Z,98854.06
2023-02-13T07:08:13.340Z,98856.03
2023-02-13T07:09:15.472Z,98857.75
2023-02-13T07:10:17.384Z,98861.06
2023-02-13T07:11:20.287Z,98858.28
2023-02-13T07:12:22.398Z,98857.16
2023-02-13T07:13:24.349Z,98857.97
2023-02-13T07:14:26.162Z,98863.97
2023-02-13T07:15:28.639Z,98864.88
2023-02-13T07:16:30.565Z,98865.72
2023-02-13T07:17:32.676Z,98868.19
2023-02-13T07:18:34.486Z,98866.16
2023-02-13T07:19:36.406Z,98875.31
2023-02-13T07:20:38.267Z,98875.00
2023-02-13T07:21:40.279Z,98878.41
2023-02-13T07:22:42.139Z,98875.72
2023-02-13T07:23:44.030Z,98877.06
2023-02-13T07:24:45.861Z,98876.84
2023-02-13T07:25:47.724Z,98883.03
2023-02-13T07:26:49.642Z,98879.66
2023-02-13T07:27:51.430Z,98885.63
2023-02-13T07:29:09.245Z,98881.09
2023-02-13T07:30:12.688Z,98889.31
2023-02-13T07:31:14.625Z,98884.78
2023-02-13T07:32:16.679Z,98883.66
2023-02-13T07:33:18.682Z,98892.72
2023-02-13T07:34:20.559Z,98889.91
2023-02-13T07:35:22.386Z,98887.25
2023-02-13T07:36:24.433Z,98880.94
2023-02-13T07:37:28.266Z,98886.09
2023-02-13T07:38:30.903Z,98890.44
2023-02-13T07:39:33.143Z,98884.34
2023-02-13T07:40:35.029Z,98883.03
2023-02-13T07:41:36.965Z,98884.88
2023-02-13T07:42:38.947Z,98887.47
2023-02-13T07:43:40.804Z,98885.91
2023-02-13T07:44:42.681Z,98883.94
2023-02-13T07:45:44.609Z,98885.47
2023-02-13T07:46:46.567Z,98883.84
2023-02-13T07:47:48.559Z,98888.78
2023-02-13T07:48:52.497Z,98887.88
2023-02-13T07:49:55.136Z,98887.97
2023-02-13T07:51:00.489Z,98881.03
2023-02-13T07:52:02.281Z,98883.03
2023-02-13T07:53:04.175Z,98883.22
2023-02-13T07:54:06.113Z,98875.72
2023-02-13T07:55:08.470Z,98880.75
2023-02-13T07:56:11.029Z,98879.09
2023-02-13T07:57:14.017Z,98872.91
2023-02-13T07:58:15.983Z,98866.94
2023-02-13T07:59:17.931Z,98873.94
2023-02-13T08:00:20.062Z,98875.72
2023-02-13T08:01:22.059Z,98869.00
2023-02-13T08:02:23.916Z,98866.53
2023-02-13T08:03:25.894Z,98865.69
2023-02-13T08:04:27.739Z,98869.84
2023-02-13T08:05:31.537Z,98857.66
2023-02-13T08:06:33.300Z,98859.19
2023-02-13T08:07:35.590Z,98858.78
2023-02-13T08:08:38.782Z,98857.09
2023-02-13T08:09:58.803Z,98866.28
2023-02-13T08:11:24.672Z,98864.66
2023-02-13T08:12:26.599Z,98873.59
2023-02-13T08:13:28.466Z,98874.13
2023-02-13T08:14:30.353Z,98870.81
2023-02-13T08:15:32.277Z,98872.59
2023-02-13T08:16:34.243Z,98871.72
2023-02-13T08:17:36.160Z,98871.53
2023-02-13T08:18:38.067Z,98876.88
2023-02-13T08:19:39.923Z,98879.91
2023-02-13T08:20:41.826Z,98876.19
2023-02-13T08:21:43.767Z,98876.88
2023-02-13T08:22:45.619Z,98874.13
2023-02-13T08:23:49.101Z,98879.91
2023-02-13T08:24:50.945Z,98883.28
2023-02-13T08:25:54.860Z,98883.09
2023-02-13T08:26:57.103Z,98872.44
2023-02-13T08:27:59.873Z,98883.47
2023-02-13T08:29:02.009Z,98880.50
2023-02-13T08:30:05.183Z,98875.56
2023-02-13T08:31:11.946Z,98880.72
2023-02-13T08:32:14.150Z,98874.41
2023-02-13T08:33:16.000Z,98871.41
2023-02-13T08:34:22.377Z,98876.56
2023-02-13T08:35:29.976Z,98874.78
2023-02-13T08:36:32.008Z,98878.50
2023-02-13T08:37:33.905Z,98879.00
2023-02-13T08:38:35.856Z,98879.66
2023-02-13T08:39:38.577Z,98877.06
2023-02-13T08:40:40.995Z,98883.16
2023-02-13T08:41:43.860Z,98889.34
2023-02-13T08:42:45.686Z,98881.72
2023-02-13T08:43:47.630Z,98889.56
2023-02-13T08:44:49.553Z,98887.81
2023-02-13T08:45:51.411Z,98889.88
2023-02-13T08:46:53.337Z,98890.59
2023-02-13T08:48:04.326Z,98887.69
2023-02-13T08:49:06.327Z,98888.81
2023-02-13T08:50:08.734Z,98892.84
2023-02-13T08:51:12.200Z,98890.25
2023-02-13T08:52:14.141Z,98894.03
2023-02-13T08:53:15.970Z,98895.38
2023-02-13T08:54:18.003Z,98893.75
2023-02-13T08:55:20.183Z,98890.91
2023-02-13T08:56:22.061Z,98889.28
2023-02-13T08:57:23.992Z,98889.06
2023-02-13T08:58:26.075Z,98890.59
2023-02-13T08:59:28.057Z,98884.50
2023-02-13T09:00:30.455Z,98882.63
2023-02-13T09:01:32.460Z,98885.69
2023-02-13T09:02:34.683Z,98887.38
2023-02-13T09:03:37.282Z,98883.97
2023-02-13T09:04:39.259Z,98880.44
2023-02-13T09:05:41.152Z,98878.66
2023-02-13T09:06:43.104Z,98880.72
2023-02-13T09:07:45.176Z,98877.91
2023-02-13T09:08:47.006Z,98877.09
2023-02-13T09:09:49.070Z,98875.53
2023-02-13T09:10:55.947Z,98879.44
2023-02-13T09:11:58.245Z,98881.47
2023-02-13T09:13:01.516Z,98875.50
2023-02-13T09:14:03.753Z,98879.59
2023-02-13T09:15:05.829Z,98878.56
2023-02-13T09:16:08.731Z,98879.72
2023-02-13T09:17:10.700Z,98878.91
2023-02-13T09:18:12.592Z,98878.66
2023-02-13T09:19:14.534Z,98881.63
2023-02-13T09:20:16.441Z,98880.69
2023-02-13T09:21:19.170Z,98882.81
2023-02-13T09:22:21.067Z,98891.97
2023-02-13T09:23:22.898Z,98885.66
2023-02-13T09:24:24.943Z,98888.69
2023-02-13T09:25:26.895Z,98887.53
2023-02-13T09:26:28.810Z,98893.16
2023-02-13T09:27:30.944Z,98900.34
2023-02-13T09:28:33.854Z,98895.19
2023-02-13T09:29:35.909Z,98892.59
2023-02-13T09:30:37.753Z,98897.88
2023-02-13T09:31:39.747Z,98903.03
2023-02-13T09:32:42.323Z,98894.94
2023-02-13T09:33:45.240Z,98892.25
2023-02-13T09:34:47.227Z,98898.31
2023-02-13T09:35:49.092Z,98896.44
2023-02-13T09:36:54.687Z,98893.75
2023-02-13T09:37:56.690Z,98894.47
2023-02-13T09:38:58.617Z,98893.41
2023-02-13T09:40:00.442Z,98890.72
2023-02-13T09:41:11.366Z,98896.59
2023-02-13T09:42:19.410Z,98902.13
2023-02-13T09:43:48.902Z,98903.03
2023-02-13T09:44:52.110Z,98900.34
2023-02-13T09:45:56.305Z,98905.31
2023-02-13T09:46:58.391Z,98897.31
2023-02-13T09:48:00.421Z,98898.63
2023-02-13T09:49:06.033Z,98896.75
2023-02-13T09:50:29.189Z,98902.84
2023-02-13T09:51:31.254Z,98900.97
2023-02-13T09:52:34.011Z,98905.13
2023-02-13T09:53:37.334Z,98903.97
2023-02-13T09:54:39.390Z,98908.06
2023-02-13T09:55:53.123Z,98908.78
2023-02-13T09:57:24.101Z,98900.31
2023-02-13T09:58:40.882Z,98901.38
2023-02-13T09:59:42.822Z,98899.59
2023-02-13T10:00:46.649Z,98902.66
2023-02-13T10:01:49.479Z,98900.91
2023-02-13T10:02:57.481Z,98904.22
2023-02-13T10:03:59.331Z,98900.25
2023-02-13T10:05:07.089Z,98899.78
2023-02-13T10:06:15.710Z,98895.81
2023-02-13T10:07:28.624Z,98898.25
2023-02-13T10:08:41.941Z,98902.75
2023-02-13T10:09:55.642Z,98900.75
2023-02-13T10:11:21.033Z,98894.88
2023-02-13T10:12:29.756Z,98901.31
2023-02-13T10:13:50.203Z,98902.75
2023-02-13T10:15:11.791Z,98898.50
2023-02-13T10:16:16.423Z,98901.44
2023-02-13T10:17:21.343Z,98899.44
2023-02-13T10:18:25.533Z,98901.66
2023-02-13T10:19:41.787Z,98890.38
2023-02-13T10:20:54.934Z,98901.53
2023-02-13T10:22:02.114Z,98898.34
2023-02-13T10:23:27.241Z,98899.06
2023-02-13T10:24:29.044Z,98900.72
2023-02-13T10:25:36.302Z,98897.31
2023-02-13T10:26:48.585Z,98904.59
2023-02-13T10:27:52.624Z,98904.78
2023-02-13T10:29:14.383Z,98897.56
2023-02-13T10:30:17.810Z,98897.13
2023-02-13T10:31:23.182Z,98899.66
2023-02-13T10:32:31.207Z,98892.41
2023-02-13T10:33:41.922Z,98898.38
2023-02-13T10:34:47.448Z,98895.41
2023-02-13T10:36:04.712Z,98888.91
2023-02-13T10:37:13.014Z,98897.28
2023-02-13T10:38:20.592Z,98889.41
2023-02-13T10:39:26.856Z,98898.31
2023-02-13T10:40:32.308Z,98892.22
2023-02-13T10:41:44.720Z,98889.25
2023-02-13T10:42:53.659Z,98891.09
2023-02-13T10:44:14.105Z,98893.78
2023-02-13T10:45:19.132Z,98890.50
2023-02-13T10:46:30.889Z,98884.88
2023-02-13T10:47:32.775Z,98877.28
2023-02-13T10:48:44.017Z,98881.56
2023-02-13T10:50:05.764Z,98881.28
2023-02-13T10:51:16.271Z,98874.94
2023-02-13T10:52:26.189Z,98874.56
2023-02-13T10:53:40.853Z,98869.41
2023-02-13T10:54:57.948Z,98873.81
2023-02-13T10:56:35.224Z,98870.53
2023-02-13T10:57:45.599Z,98869.69
2023-02-13T10:58:53.972Z,98869.41
2023-02-13T10:59:58.696Z,98868.19
2023-02-13T11:01:07.680Z,98870.66
2023-02-13T11:02:20.828Z,98864.38
2023-02-13T11:03:23.731Z,98867.78
2023-02-13T11:04:25.674Z,98858.25
2023-02-13T11:05:31.893Z,98853.06
2023-02-13T11:06:36.498Z,98856.75
2023-02-13T11:07:39.668Z,98853.06
2023-02-13T11:08:44.085Z,98854.69
2023-02-13T11:09:47.908Z,98854.84
2023-02-13T11:10:50.281Z,98854.97
2023-02-13T11:11:52.853Z,98855.94
2023-02-13T11:12:56.162Z,98856.75
2023-02-13T11:14:08.567Z,98850.59
2023-02-13T11:15:21.682Z,98850.84
2023-02-13T11:16:23.682Z,98849.25
2023-02-13T11:17:27.222Z,98846.09
2023-02-13T11:18:30.366Z,98849.38
2023-02-13T11:19:32.310Z,98842.13
2023-02-13T11:20:34.232Z,98848.13
2023-02-13T11:21:37.471Z,98837.72
2023-02-13T11:22:42.827Z,98843.75
2023-02-13T11:23:45.509Z,98836.19
2023-02-13T11:24:59.376Z,98839.94
2023-02-13T11:26:10.343Z,98839.47
2023-02-13T11:27:14.139Z,98842.31
2023-02-13T11:28:18.247Z,98839.41
2023-02-13T11:29:25.979Z,98842.34
2023-02-13T11:30:30.606Z,98841.47
2023-02-13T11:31:36.429Z,98840.63
2023-02-13T11:32:38.494Z,98843.09
2023-02-13T11:33:41.006Z,98834.31
2023-02-13T11:34:42.945Z,98841.69
2023-02-13T11:35:46.028Z,98837.16
2023-02-13T11:36:52.030Z,98842.59
2023-02-13T11:38:12.644Z,98832.63
2023-02-13T11:39:21.840Z,98838.84
2023-02-13T11:40:31.317Z,98831.03
2023-02-13T11:41:39.788Z,98834.91
2023-02-13T11:42:42.646Z,98830.72
2023-02-13T11:43:52.697Z,98829.63
2023-02-13T11:45:06.606Z,98831.78
2023-02-13T11:46:14.061Z,98834.00
2023-02-13T11:47:17.029Z,98828.13
2023-02-13T11:48:23.588Z,98830.31
2023-02-13T11:49:26.861Z,98832.38
2023-02-13T11:50:40.777Z,98829.72
2023-02-13T11:51:50.503Z,98830.72
2023-02-13T11:53:03.475Z,98825.97
2023-02-13T11:54:05.649Z,98824.44
2023-02-13T11:55:26.449Z,98827.50
2023-02-13T11:56:28.297Z,98824.94
2023-02-13T11:57:30.099Z,98821.47
2023-02-13T11:58:32.212Z,98819.94
2023-02-13T11:59:40.060Z,98824.00
2023-02-13T12:00:42.623Z,98820.63
2023-02-13T12:01:49.415Z,98815.66
2023-02-13T12:02:51.358Z,98820.94
2023-02-13T12:04:07.803Z,98820.22
2023-02-13T12:05:23.658Z,98819.03
2023-02-13T12:06:25.512Z,98817.41
2023-02-13T12:07:28.864Z,98812.03
2023-02-13T12:08:31.734Z,98817.28
2023-02-13T12:09:33.588Z,98810.63
2023-02-13T12:10:37.823Z,98806.41
2023-02-13T12:11:42.732Z,98808.53
2023-02-13T12:12:47.680Z,98809.72
2023-02-13T12:13:50.576Z,98804.84
2023-02-13T12:14:52.494Z,98811.59
2023-02-13T12:16:00.963Z,98802.97
2023-02-13T12:17:03.035Z,98805.59
2023-02-13T12:18:25.865Z,98804.03
2023-02-13T12:19:35.569Z,98797.19
2023-02-13T12:21:15.812Z,98795.22
2023-02-13T12:22:30.772Z,98796.38
2023-02-13T12:23:48.226Z,98791.03
2023-02-13T12:25:01.944Z,98788.47
2023-02-13T12:26:10.448Z,98789.13
2023-02-13T12:27:30.998Z,98789.44
2023-02-13T12:28:35.464Z,98783.41
2023-02-13T12:29:55.834Z,98799.09
2023-02-13T12:31:16.507Z,98783.25
2023-02-13T12:32:20.016Z,98783.41
2023-02-13T12:33:27.784Z,98783.06
2023-02-13T12:34:48.188Z,98780.66
2023-02-13T12:35:55.962Z,98775.03
2023-02-13T12:37:04.842Z,98777.28
2023-02-13T12:38:25.446Z,98775.00
2023-02-13T12:39:33.531Z,98777.25
2023-02-13T12:40:44.166Z,98783.47
2023-02-13T12:41:49.043Z,98776.59
2023-02-13T12:43:04.979Z,98777.41
2023-02-13T12:44:06.837Z,98777.25
2023-02-13T12:45:08.695Z,98775.00
2023-02-13T12:46:22.405Z,98775.19
2023-02-13T12:47:27.407Z,98766.19
2023-02-13T12:48:40.450Z,98773.06
2023-02-13T12:49:43.255Z,98763.75
2023-02-13T12:50:54.359Z,98769.13
2023-02-13T12:52:11.064Z,98764.72
2023-02-13T12:53:16.731Z,98769.00